createdAt,value
2023-01-17T00:02:16.656Z,5.50
2023-01-17T00:05:05.122Z,5.50
2023-01-17T00:07:52.964Z,5.50
2023-01-17T00:10:24.703Z,5.50
2023-01-17T00:12:59.352Z,5.50
2023-01-17T00:15:28.317Z,5.50
2023-01-17T00:17:57.820Z,5.50
2023-01-17T00:20:45.921Z,5.50
2023-01-17T00:23:37.747Z,5.40
2023-01-17T00:26:15.725Z,5.50
2023-01-17T00:28:43.445Z,5.40
2023-01-17T00:31:12.337Z,5.40
2023-01-17T00:33:39.222Z,5.40
2023-01-17T00:36:07.055Z,5.30
2023-01-17T00:38:38.902Z,5.30
2023-01-17T00:41:08.521Z,5.30
2023-01-17T00:43:56.388Z,5.30
2023-01-17T00:46:41.711Z,5.30
2023-01-17T00:49:30.245Z,5.20
2023-01-17T00:52:18.123Z,5.20
2023-01-17T00:55:03.494Z,5.20
2023-01-17T00:57:51.464Z,5.20
2023-01-17T01:00:40.334Z,5.10
2023-01-17T01:03:30.261Z,5.10
2023-01-17T01:06:18.150Z,5.10
2023-01-17T01:09:05.983Z,5.10
2023-01-17T01:11:51.430Z,5.10
2023-01-17T01:14:37.201Z,5.10
2023-01-17T01:17:23.039Z,5.00
2023-01-17T01:20:08.478Z,5.10
2023-01-17T01:22:53.765Z,5.10
2023-01-17T01:25:39.103Z,5.10
2023-01-17T01:28:29.927Z,5.10
2023-01-17T01:31:17.921Z,5.00
2023-01-17T01:33:44.892Z,5.10
2023-01-17T01:36:11.818Z,5.00
2023-01-17T01:38:39.294Z,5.10
2023-01-17T01:41:08.859Z,5.10
2023-01-17T01:43:48.710Z,5.10
2023-01-17T01:46:33.247Z,5.10
2023-01-17T01:49:07.429Z,5.10
2023-01-17T01:51:40.130Z,5.10
2023-01-17T01:54:15.432Z,5.10
2023-01-17T01:56:43.272Z,5.10
2023-01-17T01:59:15.825Z,5.10
2023-01-17T02:01:42.788Z,5.10
2023-01-17T02:04:25.887Z,5.10
2023-01-17T02:07:00.225Z,5.10
2023-01-17T02:09:27.765Z,5.10
2023-01-17T02:11:55.125Z,5.10
2023-01-17T02:14:24.277Z,5.10
2023-01-17T02:17:30.484Z,5.10
2023-01-17T02:20:25.375Z,5.10
2023-01-17T02:23:33.717Z,5.10
2023-01-17T02:26:22.445Z,5.10
2023-01-17T02:29:07.326Z,5.20
2023-01-17T02:32:01.180Z,5.20
2023-01-17T02:34:34.591Z,5.20
2023-01-17T02:37:11.809Z,5.20
2023-01-17T02:39:51.778Z,5.30
2023-01-17T02:42:26.525Z,5.30
2023-01-17T02:44:53.502Z,5.30
2023-01-17T02:47:24.661Z,5.30
2023-01-17T02:49:58.467Z,5.30
2023-01-17T02:53:02.659Z,5.30
2023-01-17T02:55:41.681Z,5.40
2023-01-17T02:58:42.795Z,5.40
2023-01-17T03:01:41.954Z,5.40
2023-01-17T03:04:34.278Z,5.40
2023-01-17T03:07:16.276Z,5.40
2023-01-17T03:09:46.581Z,5.40
2023-01-17T03:12:14.393Z,5.40
2023-01-17T03:14:41.251Z,5.40
2023-01-17T03:17:08.902Z,5.40
2023-01-17T03:19:35.840Z,5.50
2023-01-17T03:22:02.722Z,5.50
2023-01-17T03:24:31.733Z,5.50
2023-01-17T03:27:00.807Z,5.50
2023-01-17T03:29:27.752Z,5.50
2023-01-17T03:31:57.306Z,5.60
2023-01-17T03:34:26.223Z,5.60
2023-01-17T03:36:53.086Z,5.60
2023-01-17T03:39:19.889Z,5.60
2023-01-17T03:41:46.717Z,5.60
2023-01-17T03:44:15.761Z,5.60
2023-01-17T03:46:42.650Z,5.60
2023-01-17T03:49:09.868Z,5.70
2023-01-17T03:51:38.928Z,5.70
2023-01-17T03:54:05.867Z,5.60
2023-01-17T03:56:32.756Z,5.70
2023-01-17T03:58:59.679Z,5.70
2023-01-17T04:01:26.643Z,5.70
2023-01-17T04:03:58.099Z,5.70
2023-01-17T04:06:28.425Z,5.70
2023-01-17T04:08:59.879Z,5.70
2023-01-17T04:11:28.977Z,5.70
2023-01-17T04:13:55.852Z,5.70
2023-01-17T04:16:30.395Z,5.70
2023-01-17T04:19:00.380Z,5.80
2023-01-17T04:21:30.262Z,5.80
2023-01-17T04:23:59.281Z,5.80
2023-01-17T04:26:26.087Z,5.80
2023-01-17T04:28:53.004Z,5.80
2023-01-17T04:31:22.384Z,5.80
2023-01-17T04:33:51.475Z,5.70
2023-01-17T04:36:20.970Z,5.70
2023-01-17T04:38:50.407Z,5.70
2023-01-17T04:41:17.207Z,5.70
2023-01-17T04:43:46.367Z,5.80
2023-01-17T04:46:15.383Z,5.80
2023-01-17T04:48:44.414Z,5.80
2023-01-17T04:51:13.441Z,5.80
2023-01-17T04:53:42.609Z,5.80
2023-01-17T04:56:09.455Z,5.80
2023-01-17T04:58:36.398Z,5.80
2023-01-17T05:01:08.511Z,5.80
2023-01-17T05:03:38.365Z,5.80
2023-01-17T05:06:05.460Z,5.80
2023-01-17T05:08:32.337Z,5.80
2023-01-17T05:11:01.368Z,5.80
2023-01-17T05:13:30.694Z,5.80
2023-01-17T05:15:59.916Z,5.80
2023-01-17T05:18:29.309Z,5.80
2023-01-17T05:21:01.783Z,5.80
2023-01-17T05:23:28.760Z,5.80
2023-01-17T05:25:55.597Z,5.80
2023-01-17T05:28:25.201Z,5.70
2023-01-17T05:30:56.892Z,5.70
2023-01-17T05:33:23.760Z,5.80
2023-01-17T05:35:50.605Z,5.80
2023-01-17T05:38:17.560Z,5.70
2023-01-17T05:40:46.580Z,5.70
2023-01-17T05:43:13.414Z,5.70
2023-01-17T05:45:40.531Z,5.70
2023-01-17T05:48:08.056Z,5.70
2023-01-17T05:50:38.234Z,5.70
2023-01-17T05:53:06.421Z,5.80
2023-01-17T05:55:34.089Z,5.80
2023-01-17T05:58:01.712Z,5.80
2023-01-17T06:00:31.948Z,5.80
2023-01-17T06:03:00.682Z,5.80
2023-01-17T06:05:29.109Z,5.80
2023-01-17T06:07:59.286Z,5.80
2023-01-17T06:10:26.997Z,5.80
2023-01-17T06:13:05.478Z,5.80
2023-01-17T06:15:34.389Z,5.80
2023-01-17T06:18:09.593Z,5.80
2023-01-17T06:20:36.703Z,5.70
2023-01-17T06:23:05.199Z,5.70
2023-01-17T06:25:44.002Z,5.70
2023-01-17T06:28:18.353Z,5.70
2023-01-17T06:30:46.019Z,5.70
2023-01-17T06:33:15.935Z,5.70
2023-01-17T06:35:53.045Z,5.70
2023-01-17T06:38:22.485Z,5.70
2023-01-17T06:40:52.103Z,5.70
2023-01-17T06:43:18.958Z,5.70
2023-01-17T06:45:45.983Z,5.70
2023-01-17T06:48:15.639Z,5.70
2023-01-17T06:50:43.037Z,5.70
2023-01-17T06:53:12.874Z,5.70
2023-01-17T06:55:40.295Z,5.70
2023-01-17T06:58:10.942Z,5.70
2023-01-17T07:00:40.514Z,5.70
2023-01-17T07:03:25.322Z,5.60
2023-01-17T07:05:53.221Z,5.60
2023-01-17T07:08:20.652Z,5.60
2023-01-17T07:10:48.625Z,5.60
2023-01-17T07:13:17.969Z,5.60
2023-01-17T07:15:44.792Z,5.60
2023-01-17T07:18:11.782Z,5.60
2023-01-17T07:20:43.829Z,5.60
2023-01-17T07:23:10.763Z,5.60
2023-01-17T07:25:37.609Z,5.60
2023-01-17T07:28:04.525Z,5.60
2023-01-17T07:30:36.645Z,5.50
2023-01-17T07:33:03.965Z,5.50
2023-01-17T07:35:33.292Z,5.50
2023-01-17T07:38:02.940Z,5.50
2023-01-17T07:40:30.038Z,5.50
2023-01-17T07:43:13.548Z,5.50
2023-01-17T07:45:52.070Z,5.50
2023-01-17T07:48:24.076Z,5.50
2023-01-17T07:51:00.417Z,5.50
2023-01-17T07:53:32.935Z,5.50
2023-01-17T07:56:07.613Z,5.50
2023-01-17T07:58:35.547Z,5.60
2023-01-17T08:01:07.772Z,5.50
2023-01-17T08:03:39.951Z,5.60
2023-01-17T08:06:24.672Z,5.60
2023-01-17T08:08:56.968Z,5.60
2023-01-17T08:11:23.945Z,5.60
2023-01-17T08:13:57.433Z,5.60
2023-01-17T08:16:24.942Z,5.70
2023-01-17T08:18:52.576Z,5.70
2023-01-17T08:21:21.705Z,5.70
2023-01-17T08:23:52.151Z,5.70
2023-01-17T08:26:23.917Z,5.70
2023-01-17T08:29:00.822Z,5.70
2023-01-17T08:31:29.695Z,5.70
2023-01-17T08:33:57.415Z,5.70
2023-01-17T08:36:28.595Z,5.70
2023-01-17T08:38:55.714Z,5.80
2023-01-17T08:41:24.067Z,5.80
2023-01-17T08:43:52.135Z,5.80
2023-01-17T08:46:19.638Z,5.80
2023-01-17T08:48:46.513Z,5.80
2023-01-17T08:51:13.732Z,5.80
2023-01-17T08:53:40.727Z,5.80
2023-01-17T08:56:07.752Z,5.80
2023-01-17T08:58:35.780Z,5.80
2023-01-17T09:01:06.526Z,5.80
2023-01-17T09:03:34.670Z,5.80
2023-01-17T09:06:06.578Z,5.80
2023-01-17T09:08:36.665Z,5.80
2023-01-17T09:11:15.035Z,5.80
2023-01-17T09:13:42.586Z,5.80
2023-01-17T09:16:10.244Z,5.90
2023-01-17T09:18:37.242Z,5.90
2023-01-17T09:21:11.908Z,5.90
2023-01-17T09:23:38.841Z,5.90
2023-01-17T09:26:06.119Z,6.00
2023-01-17T09:28:40.825Z,6.00
2023-01-17T09:31:11.247Z,6.00
2023-01-17T09:33:44.590Z,6.10
2023-01-17T09:36:12.046Z,6.10
2023-01-17T09:38:41.582Z,6.10
2023-01-17T09:41:22.807Z,6.00
2023-01-17T09:43:55.455Z,6.00
2023-01-17T09:46:29.825Z,6.00
2023-01-17T09:49:08.530Z,5.90
2023-01-17T09:51:38.759Z,6.00
2023-01-17T09:54:06.072Z,6.00
2023-01-17T09:56:38.935Z,6.00
2023-01-17T09:59:21.649Z,6.00
2023-01-17T10:02:02.021Z,6.00
2023-01-17T10:04:34.872Z,6.00
2023-01-17T10:07:13.750Z,6.00
2023-01-17T10:09:49.541Z,5.90
2023-01-17T10:12:33.091Z,6.00
2023-01-17T10:15:35.629Z,6.00
2023-01-17T10:18:29.896Z,6.00
2023-01-17T10:20:57.440Z,6.00
2023-01-17T10:23:52.025Z,6.00
2023-01-17T10:26:24.979Z,6.00
2023-01-17T10:29:00.838Z,6.00
2023-01-17T10:31:42.636Z,6.00
2023-01-17T10:34:49.022Z,5.90
2023-01-17T10:37:31.522Z,5.90
2023-01-17T10:40:14.059Z,5.80
2023-01-17T10:42:58.373Z,5.80
2023-01-17T10:45:28.871Z,5.90
2023-01-17T10:48:13.019Z,5.90
2023-01-17T10:50:59.060Z,5.90
2023-01-17T10:53:35.195Z,5.90
2023-01-17T10:56:03.194Z,5.90
2023-01-17T10:58:31.529Z,5.80
2023-01-17T11:00:58.631Z,5.80
2023-01-17T11:03:28.469Z,5.80
2023-01-17T11:06:19.026Z,5.80
2023-01-17T11:08:53.430Z,5.70
2023-01-17T11:11:23.319Z,5.80
2023-01-17T11:13:54.300Z,5.70
2023-01-17T11:16:22.940Z,5.70
2023-01-17T11:19:14.737Z,5.70
2023-01-17T11:21:52.230Z,5.60
2023-01-17T11:24:34.657Z,5.50
2023-01-17T11:27:07.110Z,5.50
2023-01-17T11:29:42.199Z,5.40
2023-01-17T11:32:30.994Z,5.50
2023-01-17T11:35:17.624Z,5.40
2023-01-17T11:37:59.108Z,5.40
2023-01-17T11:40:45.034Z,5.40
2023-01-17T11:43:12.252Z,5.30
2023-01-17T11:45:41.787Z,5.30
2023-01-17T11:48:08.595Z,5.30
2023-01-17T11:50:38.754Z,5.30
2023-01-17T11:53:06.735Z,5.30
2023-01-17T11:55:35.800Z,5.30
2023-01-17T11:58:02.855Z,5.30
2023-01-17T12:00:46.047Z,5.30
2023-01-17T12:03:37.889Z,5.30
2023-01-17T12:06:04.916Z,5.30
2023-01-17T12:09:08.816Z,5.40
2023-01-17T12:12:26.852Z,5.60
2023-01-17T12:15:04.773Z,5.70
2023-01-17T12:17:58.140Z,5.80
2023-01-17T12:20:47.547Z,5.80
2023-01-17T12:23:50.064Z,5.90
2023-01-17T12:31:18.868Z,6.00
2023-01-17T12:33:59.650Z,6.00
2023-01-17T12:36:42.502Z,6.00
2023-01-17T12:39:14.104Z,6.10
2023-01-17T12:42:13.560Z,6.20
2023-01-17T12:44:51.738Z,6.20
2023-01-17T12:47:20.884Z,6.20
2023-01-17T12:50:17.929Z,6.20
2023-01-17T12:52:59.236Z,6.20
2023-01-17T12:55:52.729Z,6.20
2023-01-17T12:58:23.660Z,6.10
2023-01-17T13:01:00.482Z,6.00
2023-01-17T13:03:43.672Z,6.00
2023-01-17T13:06:21.174Z,6.10
2023-01-17T13:08:53.108Z,6.00
2023-01-17T13:11:28.586Z,6.00
2023-01-17T13:13:57.575Z,6.00
2023-01-17T13:16:29.574Z,6.00
2023-01-17T13:19:15.884Z,6.10
2023-01-17T13:21:43.109Z,6.10
2023-01-17T13:24:26.967Z,6.10
2023-01-17T13:27:04.727Z,6.20
2023-01-17T13:30:00.488Z,6.20
2023-01-17T13:33:07.041Z,6.20
2023-01-17T13:35:58.033Z,6.20
2023-01-17T13:38:33.901Z,6.10
2023-01-17T13:41:22.490Z,6.00
2023-01-17T13:44:08.317Z,5.90
2023-01-17T13:46:53.945Z,5.90
2023-01-17T13:49:26.693Z,5.90
2023-01-17T13:52:21.180Z,5.90
2023-01-17T13:54:52.698Z,5.90
2023-01-17T13:57:29.736Z,5.90
2023-01-17T13:59:58.924Z,5.90
2023-01-17T14:02:31.740Z,5.90
2023-01-17T14:05:22.875Z,5.90
2023-01-17T14:08:14.420Z,5.90
2023-01-17T14:10:47.565Z,5.90
2023-01-17T14:13:37.274Z,5.80
2023-01-17T14:16:22.135Z,5.80
2023-01-17T14:18:49.738Z,5.70
2023-01-17T14:21:27.921Z,5.70
2023-01-17T14:24:10.412Z,5.70
2023-01-17T14:26:56.312Z,5.70
2023-01-17T14:29:48.069Z,5.70
2023-01-17T14:32:41.193Z,5.70
2023-01-17T14:35:21.977Z,5.70
2023-01-17T14:37:53.668Z,5.70
2023-01-17T14:40:30.530Z,5.70
2023-01-17T14:43:09.868Z,5.70
2023-01-17T14:45:39.742Z,5.70
2023-01-17T14:48:14.675Z,5.70
2023-01-17T14:50:44.287Z,5.70
2023-01-17T14:53:14.176Z,5.80
2023-01-17T14:55:47.443Z,5.80
2023-01-17T14:58:41.580Z,5.80
2023-01-17T15:01:14.669Z,5.70
2023-01-17T15:03:55.405Z,5.70
2023-01-17T15:07:00.142Z,5.70
2023-01-17T15:09:32.309Z,5.60
2023-01-17T15:12:05.301Z,5.60
2023-01-17T15:18:59.604Z,5.50
2023-01-17T15:21:31.669Z,5.50
2023-01-17T15:24:08.160Z,5.50
2023-01-17T15:26:37.249Z,5.40
2023-01-17T15:29:24.143Z,5.40
2023-01-17T15:31:54.195Z,5.40
2023-01-17T15:34:34.787Z,5.40
2023-01-17T15:37:12.649Z,5.30
2023-01-17T15:39:44.276Z,5.30
2023-01-17T15:42:26.068Z,5.30
2023-01-17T15:44:59.161Z,5.20
2023-01-17T15:47:30.673Z,5.20
2023-01-17T15:50:02.492Z,5.20
2023-01-17T15:52:29.579Z,5.10
2023-01-17T15:55:14.805Z,5.10
2023-01-17T15:57:47.593Z,5.10
2023-01-17T16:00:19.096Z,5.10
2023-01-17T16:02:58.746Z,5.10
2023-01-17T16:05:30.813Z,5.00
2023-01-17T16:08:04.316Z,5.00
2023-01-17T16:10:37.122Z,5.00
2023-01-17T16:13:06.469Z,4.90
2023-01-17T16:15:36.139Z,4.90
2023-01-17T16:18:02.959Z,4.90
2023-01-17T16:20:35.926Z,4.80
2023-01-17T16:23:03.103Z,4.80
2023-01-17T16:25:32.481Z,4.80
2023-01-17T16:28:03.324Z,4.80
2023-01-17T16:30:30.994Z,4.70
2023-01-17T16:32:58.780Z,4.70
2023-01-17T16:35:30.526Z,4.70
2023-01-17T16:38:19.841Z,4.70
2023-01-17T16:40:47.773Z,4.70
2023-01-17T16:43:17.363Z,4.70
2023-01-17T16:45:51.952Z,4.60
2023-01-17T16:48:20.285Z,4.60
2023-01-17T16:50:52.263Z,4.60
2023-01-17T16:53:25.266Z,4.60
2023-01-17T16:55:57.446Z,4.60
2023-01-17T16:58:24.493Z,4.60
2023-01-17T17:00:51.596Z,4.60
2023-01-17T17:03:23.718Z,4.50
2023-01-17T17:06:00.958Z,4.50
2023-01-17T17:08:34.066Z,4.50
2023-01-17T17:11:27.256Z,4.40
2023-01-17T17:13:56.844Z,4.40
2023-01-17T17:16:32.779Z,4.40
2023-01-17T17:19:04.847Z,4.40
2023-01-17T17:21:33.853Z,4.40
2023-01-17T17:24:01.604Z,4.30
2023-01-17T17:26:32.232Z,4.30
2023-01-17T17:28:59.151Z,4.30
2023-01-17T17:31:26.887Z,4.30
2023-01-17T17:34:01.053Z,4.30
2023-01-17T17:36:31.412Z,4.30
2023-01-17T17:39:03.405Z,4.30
2023-01-17T17:41:35.059Z,4.30
2023-01-17T17:44:03.729Z,4.20
2023-01-17T17:46:31.232Z,4.20
2023-01-17T17:48:58.731Z,4.20
2023-01-17T17:51:31.757Z,4.20
2023-01-17T17:54:01.756Z,4.20
2023-01-17T17:56:30.123Z,4.10
2023-01-17T17:58:58.485Z,4.10
2023-01-17T18:01:25.676Z,4.10
2023-01-17T18:03:54.978Z,4.10
2023-01-17T18:06:22.293Z,4.10
2023-01-17T18:08:51.931Z,4.00
2023-01-17T18:11:25.900Z,4.00
2023-01-17T18:13:57.484Z,4.00
2023-01-17T18:16:25.792Z,4.00
2023-01-17T18:18:55.117Z,4.00
2023-01-17T18:21:33.984Z,3.90
2023-01-17T18:24:03.567Z,3.90
2023-01-17T18:26:31.825Z,3.90
2023-01-17T18:29:00.105Z,3.90
2023-01-17T18:31:28.473Z,3.90
2023-01-17T18:33:57.657Z,3.90
2023-01-17T18:36:26.130Z,3.90
2023-01-17T18:38:53.073Z,3.90
2023-01-17T18:41:23.030Z,3.80
2023-01-17T18:43:49.912Z,3.80
2023-01-17T18:46:18.374Z,3.80
2023-01-17T18:48:50.567Z,3.80
2023-01-17T18:51:19.436Z,3.70
2023-01-17T18:53:49.055Z,3.70
2023-01-17T18:56:19.452Z,3.70
2023-01-17T18:58:47.945Z,3.70
2023-01-17T19:01:24.703Z,3.70
2023-01-17T19:03:53.618Z,3.70
2023-01-17T19:06:24.491Z,3.60
2023-01-17T19:08:54.468Z,3.60
2023-01-17T19:11:25.651Z,3.60
2023-01-17T19:13:53.369Z,3.60
2023-01-17T19:16:32.605Z,3.60
2023-01-17T19:19:03.516Z,3.50
2023-01-17T19:21:30.648Z,3.50
2023-01-17T19:24:01.602Z,3.50
2023-01-17T19:26:29.884Z,3.50
2023-01-17T19:28:58.918Z,3.40
2023-01-17T19:31:35.692Z,3.40
2023-01-17T19:34:05.214Z,3.40
2023-01-17T19:36:34.741Z,3.40
2023-01-17T19:39:06.714Z,3.30
2023-01-17T19:41:40.510Z,3.30
2023-01-17T19:44:09.038Z,3.30
2023-01-17T19:46:43.841Z,3.30
2023-01-17T19:49:10.870Z,3.30
2023-01-17T19:51:39.625Z,3.30
2023-01-17T19:54:09.034Z,3.20
2023-01-17T19:56:36.251Z,3.30
2023-01-17T19:59:03.678Z,3.30
2023-01-17T20:01:34.633Z,3.30
2023-01-17T20:04:02.859Z,3.20
2023-01-17T20:06:33.167Z,3.20
2023-01-17T20:09:00.156Z,3.20
2023-01-17T20:11:28.284Z,3.20
2023-01-17T20:13:57.048Z,3.20
2023-01-17T20:16:25.718Z,3.10
2023-01-17T20:18:53.136Z,3.10
2023-01-17T20:21:23.104Z,3.10
2023-01-17T20:23:51.422Z,3.10
2023-01-17T20:26:29.554Z,3.10
2023-01-17T20:28:56.789Z,3.10
2023-01-17T20:31:25.434Z,3.00
2023-01-17T20:33:56.283Z,3.00
2023-01-17T20:36:25.717Z,3.00
2023-01-17T20:38:54.387Z,3.00
2023-01-17T20:41:29.145Z,3.00
2023-01-17T20:43:57.888Z,3.00
2023-01-17T20:46:40.622Z,2.90
2023-01-17T20:49:14.988Z,2.90
2023-01-17T20:51:45.964Z,2.90
2023-01-17T20:54:15.187Z,2.90
2023-01-17T20:56:42.749Z,2.90
2023-01-17T20:59:20.277Z,2.90
2023-01-17T21:01:47.479Z,2.80
2023-01-17T21:04:15.097Z,2.80
2023-01-17T21:06:47.250Z,2.80
2023-01-17T21:09:15.361Z,2.80
2023-01-17T21:11:42.317Z,2.80
2023-01-17T21:14:09.281Z,2.80
2023-01-17T21:16:36.245Z,2.70
2023-01-17T21:19:03.382Z,2.70
2023-01-17T21:21:32.623Z,2.70
2023-01-17T21:23:59.944Z,2.70
2023-01-17T21:26:28.219Z,2.70
2023-01-17T21:28:55.782Z,2.70
2023-01-17T21:31:28.180Z,2.70
2023-01-17T21:34:00.516Z,2.70
2023-01-17T21:36:30.688Z,2.70
2023-01-17T21:38:59.207Z,2.70
2023-01-17T21:41:29.392Z,2.60
2023-01-17T21:44:02.115Z,2.70
2023-01-17T21:46:29.957Z,2.70
2023-01-17T21:48:57.602Z,2.60
2023-01-17T21:51:45.284Z,2.60
2023-01-17T21:54:15.278Z,2.60
2023-01-17T21:57:02.612Z,2.60
2023-01-17T21:59:32.258Z,2.60
2023-01-17T22:02:04.123Z,2.60
2023-01-17T22:04:31.085Z,2.60
2023-01-17T22:06:58.613Z,2.60
2023-01-17T22:09:25.803Z,2.60
2023-01-17T22:11:55.056Z,2.60
2023-01-17T22:14:22.215Z,2.60
2023-01-17T22:16:51.712Z,2.50
2023-01-17T22:19:18.688Z,2.50
2023-01-17T22:21:47.991Z,2.50
2023-01-17T22:24:17.977Z,2.50
2023-01-17T22:26:46.958Z,2.50
2023-01-17T22:29:18.464Z,2.50
2023-01-17T22:31:46.093Z,2.50
2023-01-17T22:34:13.933Z,2.40
2023-01-17T22:36:41.374Z,2.40
2023-01-17T22:39:13.221Z,2.40
2023-01-17T22:41:42.555Z,2.40
2023-01-17T22:44:09.409Z,2.40
2023-01-17T22:46:38.343Z,2.40
2023-01-17T22:49:08.546Z,2.30
2023-01-17T22:51:35.855Z,2.30
2023-01-17T22:54:02.750Z,2.30
2023-01-17T22:56:32.560Z,2.30
2023-01-17T22:59:02.365Z,2.30
2023-01-17T23:01:32.498Z,2.30
2023-01-17T23:04:01.691Z,2.30
2023-01-17T23:06:39.707Z,2.30
2023-01-17T23:09:13.297Z,2.20
2023-01-17T23:11:47.098Z,2.20
2023-01-17T23:14:26.304Z,2.20
2023-01-17T23:17:11.639Z,2.20
2023-01-17T23:19:47.867Z,2.20
2023-01-17T23:22:20.916Z,2.10
2023-01-17T23:24:51.866Z,2.10
2023-01-17T23:27:43.607Z,2.10
2023-01-17T23:30:10.944Z,2.10
2023-01-17T23:32:46.022Z,2.00
2023-01-17T23:35:16.797Z,2.00
2023-01-17T23:38:02.655Z,2.00
2023-01-17T23:40:31.770Z,2.00
2023-01-17T23:43:19.855Z,2.00
2023-01-17T23:45:47.256Z,2.00
2023-01-17T23:48:14.049Z,2.00
2023-01-17T23:50:47.037Z,2.00
2023-01-17T23:53:22.471Z,2.00
2023-01-17T23:55:57.266Z,2.00
2023-01-17T23:58:26.328Z,1.90
